createdAt,value
2017-11-20T00:01:55.099Z,0.90
2017-11-20T00:04:25.329Z,0.80
2017-11-20T00:06:53.668Z,0.80
2017-11-20T00:09:21.241Z,0.80
2017-11-20T00:11:49.038Z,0.80
2017-11-20T00:14:16.580Z,0.80
2017-11-20T00:16:44.124Z,0.90
2017-11-20T00:19:11.708Z,0.80
2017-11-20T00:21:40.055Z,0.70
2017-11-20T00:24:07.595Z,0.70
2017-11-20T00:26:35.168Z,0.70
2017-11-20T00:29:02.708Z,0.70
2017-11-20T00:31:30.301Z,0.80
2017-11-20T00:33:57.829Z,0.80
2017-11-20T00:36:25.400Z,0.80
2017-11-20T00:38:53.736Z,0.80
2017-11-20T00:41:22.077Z,0.80
2017-11-20T00:43:49.605Z,0.80
2017-11-20T00:46:18.038Z,0.70
2017-11-20T00:48:46.192Z,0.80
2017-11-20T00:51:13.761Z,0.80
2017-11-20T00:53:41.301Z,0.80
2017-11-20T00:56:09.735Z,0.70
2017-11-20T00:58:37.266Z,0.70
2017-11-20T01:01:05.641Z,0.60
2017-11-20T01:03:34.172Z,0.60
2017-11-20T01:06:02.496Z,0.60
2017-11-20T01:08:30.022Z,0.60
2017-11-20T01:10:57.631Z,0.70
2017-11-20T01:13:25.179Z,0.70
2017-11-20T01:15:53.541Z,0.80
2017-11-20T01:18:21.887Z,0.90
2017-11-20T01:20:49.491Z,0.80
2017-11-20T01:23:18.539Z,0.70
2017-11-20T01:25:46.898Z,0.60
2017-11-20T01:28:14.433Z,0.60
2017-11-20T01:30:42.014Z,0.50
2017-11-20T01:33:10.397Z,0.60
2017-11-20T01:35:37.957Z,0.50
2017-11-20T01:38:05.486Z,0.50
2017-11-20T01:40:34.056Z,0.50
2017-11-20T01:43:01.718Z,0.50
2017-11-20T01:45:29.919Z,0.50
2017-11-20T01:47:59.331Z,0.40
2017-11-20T01:50:26.908Z,0.40
2017-11-20T01:52:54.441Z,0.30
2017-11-20T01:55:22.803Z,0.40
2017-11-20T01:57:50.365Z,0.40
2017-11-20T02:00:17.951Z,0.40
2017-11-20T02:02:57.207Z,0.40
2017-11-20T02:05:24.786Z,0.50
2017-11-20T02:07:52.450Z,0.50
2017-11-20T02:10:20.831Z,0.50
2017-11-20T02:12:48.371Z,0.50
2017-11-20T02:15:15.947Z,0.50
2017-11-20T02:17:43.492Z,0.50
2017-11-20T02:20:11.057Z,0.60
2017-11-20T02:22:39.916Z,0.60
2017-11-20T02:25:07.477Z,0.60
2017-11-20T02:27:35.000Z,0.60
2017-11-20T02:30:02.567Z,0.50
2017-11-20T02:32:31.055Z,0.50
2017-11-20T02:34:58.613Z,0.50
2017-11-20T02:37:26.164Z,0.50
2017-11-20T02:39:54.378Z,0.70
2017-11-20T02:42:21.927Z,0.60
2017-11-20T02:44:49.587Z,0.70
2017-11-20T02:47:18.145Z,0.50
2017-11-20T02:49:45.735Z,0.60
2017-11-20T02:52:13.306Z,0.50
2017-11-20T02:54:41.638Z,0.60
2017-11-20T02:57:09.160Z,0.60
2017-11-20T02:59:37.497Z,0.50
2017-11-20T03:02:05.041Z,0.50
2017-11-20T03:04:32.609Z,0.50
2017-11-20T03:07:01.344Z,0.50
2017-11-20T03:09:28.918Z,0.50
2017-11-20T03:11:56.447Z,0.50
2017-11-20T03:14:24.769Z,0.60
2017-11-20T03:16:52.877Z,0.50
2017-11-20T03:19:20.497Z,0.50
2017-11-20T03:21:49.604Z,0.50
2017-11-20T03:24:18.767Z,0.40
2017-11-20T03:26:46.340Z,0.40
2017-11-20T03:29:17.446Z,0.50
2017-11-20T03:31:46.366Z,0.50
2017-11-20T03:34:13.951Z,0.40
2017-11-20T03:36:41.475Z,0.60
2017-11-20T03:39:09.049Z,0.60
2017-11-20T03:41:36.580Z,0.50
2017-11-20T03:44:04.153Z,0.40
2017-11-20T03:46:31.725Z,0.50
2017-11-20T03:48:59.365Z,0.40
2017-11-20T03:51:27.758Z,0.40
2017-11-20T03:53:56.227Z,0.50
2017-11-20T03:56:23.824Z,0.50
2017-11-20T03:58:52.883Z,0.50
2017-11-20T04:01:20.435Z,0.50
2017-11-20T04:03:48.024Z,0.40
2017-11-20T04:06:15.565Z,0.50
2017-11-20T04:08:43.169Z,0.50
2017-11-20T04:11:11.085Z,0.30
2017-11-20T04:13:38.653Z,0.30
2017-11-20T04:16:06.520Z,0.30
2017-11-20T04:18:34.086Z,0.30
2017-11-20T04:21:01.634Z,0.30
2017-11-20T04:23:29.206Z,0.40
2017-11-20T04:25:56.736Z,0.50
2017-11-20T04:28:25.006Z,0.40
2017-11-20T04:30:52.541Z,0.30
2017-11-20T04:33:20.147Z,0.30
2017-11-20T04:35:48.482Z,0.30
2017-11-20T04:38:16.066Z,0.40
2017-11-20T04:40:43.595Z,0.40
2017-11-20T04:43:11.165Z,0.20
2017-11-20T04:45:38.730Z,0.20
2017-11-20T04:48:06.266Z,0.20
2017-11-20T04:50:35.524Z,0.20
2017-11-20T04:53:03.763Z,0.20
2017-11-20T04:55:32.264Z,0.20
2017-11-20T04:57:59.814Z,0.30
2017-11-20T05:00:28.150Z,0.40
2017-11-20T05:02:55.680Z,0.30
2017-11-20T05:05:24.084Z,0.40
2017-11-20T05:07:51.632Z,0.40
2017-11-20T05:10:19.217Z,0.30
2017-11-20T05:12:48.697Z,0.40
2017-11-20T05:15:16.290Z,0.30
2017-11-20T05:17:43.823Z,0.30
2017-11-20T05:20:12.344Z,0.30
2017-11-20T05:22:39.873Z,0.40
2017-11-20T05:25:07.435Z,0.30
2017-11-20T05:27:34.995Z,0.20
2017-11-20T05:30:04.182Z,0.30
2017-11-20T05:32:31.877Z,0.30
2017-11-20T05:35:00.186Z,0.20
2017-11-20T05:37:28.650Z,0.20
2017-11-20T05:39:56.221Z,0.20
2017-11-20T05:42:23.806Z,0.20
2017-11-20T05:44:52.139Z,0.20
2017-11-20T05:47:20.922Z,0.20
2017-11-20T05:49:50.526Z,0.20
2017-11-20T05:52:18.130Z,0.20
2017-11-20T05:54:45.675Z,0.20
2017-11-20T05:57:15.662Z,0.30
2017-11-20T05:59:43.207Z,0.20
2017-11-20T06:02:10.736Z,0.20
2017-11-20T06:04:40.721Z,0.30
2017-11-20T06:07:08.295Z,0.20
2017-11-20T06:09:35.861Z,0.30
2017-11-20T06:12:03.389Z,0.20
2017-11-20T06:14:31.714Z,0.30
2017-11-20T06:16:59.243Z,0.30
2017-11-20T06:19:27.769Z,0.40
2017-11-20T06:21:55.824Z,0.40
2017-11-20T06:24:24.256Z,0.30
2017-11-20T06:26:52.512Z,0.40
2017-11-20T06:29:20.094Z,0.40
2017-11-20T06:31:48.421Z,0.60
2017-11-20T06:34:16.008Z,0.60
2017-11-20T06:36:43.551Z,0.50
2017-11-20T06:39:11.122Z,0.50
2017-11-20T06:41:38.656Z,0.50
2017-11-20T06:44:07.117Z,0.60
2017-11-20T06:46:34.666Z,0.70
2017-11-20T06:49:02.851Z,0.70
2017-11-20T06:51:34.104Z,0.70
2017-11-20T06:54:01.664Z,0.70
2017-11-20T06:56:30.573Z,0.70
2017-11-20T06:58:58.901Z,0.70
2017-11-20T07:01:26.432Z,0.70
2017-11-20T07:03:55.533Z,0.80
2017-11-20T07:06:23.076Z,0.80
2017-11-20T07:08:50.671Z,0.90
2017-11-20T07:11:18.215Z,0.90
2017-11-20T07:13:45.796Z,0.90
2017-11-20T07:16:13.328Z,1.00
2017-11-20T07:18:40.901Z,1.10
2017-11-20T07:21:10.818Z,1.20
2017-11-20T07:23:39.156Z,1.10
2017-11-20T07:26:19.399Z,1.10
2017-11-20T07:28:58.902Z,1.20
2017-11-20T07:31:29.144Z,1.20
2017-11-20T07:34:08.636Z,1.30
2017-11-20T07:36:47.881Z,1.30
2017-11-20T07:39:16.268Z,1.40
2017-11-20T07:41:51.779Z,1.50
2017-11-20T07:44:19.349Z,1.50
2017-11-20T07:46:46.913Z,1.50
2017-11-20T07:49:15.228Z,1.50
2017-11-20T07:51:42.771Z,1.50
2017-11-20T07:54:10.890Z,1.60
2017-11-20T07:56:38.416Z,1.70
2017-11-20T07:59:05.980Z,1.70
2017-11-20T08:01:33.532Z,1.70
2017-11-20T08:04:01.865Z,1.90
2017-11-20T08:06:30.950Z,1.90
2017-11-20T08:08:58.523Z,1.90
2017-11-20T08:11:26.230Z,2.00
2017-11-20T08:13:53.828Z,2.00
2017-11-20T08:16:21.357Z,2.00
2017-11-20T08:18:48.930Z,2.10
2017-11-20T08:21:16.473Z,2.30
2017-11-20T08:23:44.800Z,2.30
2017-11-20T08:26:12.340Z,2.30
2017-11-20T08:28:39.929Z,2.30
2017-11-20T08:31:07.462Z,2.40
2017-11-20T08:33:35.046Z,2.50
2017-11-20T08:36:03.369Z,2.70
2017-11-20T08:38:30.937Z,2.70
2017-11-20T08:40:58.479Z,2.70
2017-11-20T08:43:26.825Z,2.90
2017-11-20T08:45:54.346Z,2.80
2017-11-20T08:48:22.672Z,2.80
2017-11-20T08:50:50.203Z,2.80
2017-11-20T08:53:17.768Z,2.80
2017-11-20T08:55:45.292Z,2.90
2017-11-20T08:58:12.852Z,3.00
2017-11-20T09:00:40.380Z,3.10
2017-11-20T09:03:07.949Z,3.20
2017-11-20T09:05:35.475Z,3.20
2017-11-20T09:08:03.056Z,3.20
2017-11-20T09:10:30.615Z,3.20
2017-11-20T09:12:58.177Z,3.20
2017-11-20T09:15:26.488Z,3.10
2017-11-20T09:17:54.056Z,3.30
2017-11-20T09:20:21.592Z,3.40
2017-11-20T09:22:49.151Z,3.50
2017-11-20T09:25:16.680Z,3.60
2017-11-20T09:27:45.189Z,3.70
2017-11-20T09:30:12.720Z,3.90
2017-11-20T09:32:41.048Z,4.20
2017-11-20T09:35:08.577Z,4.10
2017-11-20T09:37:37.469Z,4.40
2017-11-20T09:40:05.770Z,4.50
2017-11-20T09:42:34.100Z,4.70
2017-11-20T09:45:01.624Z,4.70
2017-11-20T09:47:29.957Z,4.90
2017-11-20T09:49:57.521Z,4.80
2017-11-20T09:52:25.086Z,4.90
2017-11-20T09:54:52.612Z,5.10
2017-11-20T09:57:20.186Z,5.20
2017-11-20T09:59:47.725Z,5.40
2017-11-20T10:02:15.370Z,5.60
2017-11-20T10:04:42.940Z,5.80
2017-11-20T10:07:10.508Z,6.00
2017-11-20T10:09:38.190Z,6.00
2017-11-20T10:12:05.849Z,6.10
2017-11-20T10:14:34.141Z,6.30
2017-11-20T10:17:02.498Z,6.30
2017-11-20T10:19:30.031Z,6.30
2017-11-20T10:21:57.619Z,6.30
2017-11-20T10:24:25.154Z,6.40
2017-11-20T10:26:53.480Z,6.40
2017-11-20T10:29:21.976Z,6.40
2017-11-20T10:31:49.551Z,6.40
2017-11-20T10:34:17.084Z,6.40
2017-11-20T10:36:45.421Z,6.60
2017-11-20T10:39:13.488Z,6.60
2017-11-20T10:41:41.053Z,6.50
2017-11-20T10:44:09.465Z,6.40
2017-11-20T10:46:37.024Z,6.40
2017-11-20T10:49:05.471Z,6.50
2017-11-20T10:54:07.064Z,6.60
2017-11-20T10:56:34.644Z,6.70
2017-11-20T10:59:02.200Z,6.90
2017-11-20T11:01:29.773Z,6.70
2017-11-20T11:03:57.306Z,6.70
2017-11-20T11:06:24.865Z,6.70
2017-11-20T11:08:52.402Z,6.80
2017-11-20T11:11:20.796Z,6.70
2017-11-20T11:13:48.371Z,6.80
2017-11-20T11:16:15.945Z,6.70
2017-11-20T11:18:43.549Z,6.80
2017-11-20T11:21:11.104Z,6.80
2017-11-20T11:23:42.407Z,7.00
2017-11-20T11:26:09.947Z,7.00
2017-11-20T11:28:38.275Z,7.30
2017-11-20T11:31:06.839Z,7.20
2017-11-20T11:33:34.651Z,7.30
2017-11-20T11:36:02.172Z,7.40
2017-11-20T11:38:29.733Z,7.30
2017-11-20T11:40:57.283Z,7.30
2017-11-20T11:43:24.847Z,7.20
2017-11-20T11:45:52.408Z,7.10
2017-11-20T11:48:19.992Z,7.20
2017-11-20T11:50:47.555Z,7.20
2017-11-20T11:53:15.082Z,7.20
2017-11-20T11:55:43.448Z,7.40
2017-11-20T11:58:10.990Z,7.40
2017-11-20T12:00:38.549Z,7.50
2017-11-20T12:03:06.084Z,7.60
2017-11-20T12:05:33.788Z,7.70
2017-11-20T12:08:01.347Z,7.70
2017-11-20T12:10:29.684Z,8.00
2017-11-20T12:12:57.238Z,8.00
2017-11-20T12:15:24.769Z,8.00
2017-11-20T12:17:52.333Z,8.00
2017-11-20T12:20:19.861Z,7.90
2017-11-20T12:22:47.424Z,7.90
2017-11-20T12:25:14.970Z,7.90
2017-11-20T12:27:42.998Z,8.00
2017-11-20T12:30:10.801Z,8.00
2017-11-20T12:32:39.345Z,7.80
2017-11-20T12:35:07.678Z,7.70
2017-11-20T12:37:35.249Z,7.70
2017-11-20T12:40:02.780Z,7.60
2017-11-20T12:42:31.130Z,7.70
2017-11-20T12:44:59.268Z,7.60
2017-11-20T12:47:26.862Z,7.80
2017-11-20T12:49:54.448Z,7.70
2017-11-20T12:52:22.017Z,7.70
2017-11-20T12:54:49.591Z,7.60
2017-11-20T12:57:17.212Z,7.60
2017-11-20T12:59:45.555Z,7.50
2017-11-20T13:02:13.137Z,7.50
2017-11-20T13:04:40.677Z,7.40
2017-11-20T13:07:08.240Z,7.30
2017-11-20T13:09:35.843Z,7.20
2017-11-20T13:12:04.023Z,7.20
2017-11-20T13:14:31.587Z,7.30
2017-11-20T13:16:59.265Z,7.30
2017-11-20T13:19:26.788Z,7.30
2017-11-20T13:21:54.405Z,7.30
2017-11-20T13:24:21.937Z,7.20
2017-11-20T13:26:51.921Z,7.20
2017-11-20T13:29:19.470Z,7.20
2017-11-20T13:31:47.067Z,7.10
2017-11-20T13:34:14.649Z,7.10
2017-11-20T13:36:42.229Z,7.10
2017-11-20T13:39:09.761Z,7.00
2017-11-20T13:41:37.336Z,7.10
2017-11-20T13:44:05.621Z,6.90
2017-11-20T13:46:34.039Z,7.00
2017-11-20T13:49:01.577Z,7.00
2017-11-20T13:51:29.919Z,6.80
2017-11-20T13:53:57.446Z,6.80
2017-11-20T13:56:25.064Z,6.80
2017-11-20T13:58:52.589Z,6.80
2017-11-20T14:01:20.922Z,6.70
2017-11-20T14:03:49.255Z,6.70
2017-11-20T14:06:19.241Z,6.70
2017-11-20T14:08:46.784Z,6.70
2017-11-20T14:11:15.112Z,6.70
2017-11-20T14:13:42.661Z,6.70
2017-11-20T14:16:10.292Z,6.70
2017-11-20T14:18:37.845Z,6.60
2017-11-20T14:21:05.422Z,6.60
2017-11-20T14:23:33.939Z,6.70
2017-11-20T14:26:01.561Z,6.70
2017-11-20T14:28:29.218Z,6.60
2017-11-20T14:30:56.772Z,6.60
2017-11-20T14:33:25.070Z,6.40
2017-11-20T14:35:53.404Z,6.50
2017-11-20T14:38:20.953Z,6.50
2017-11-20T14:40:48.533Z,6.40
2017-11-20T14:43:16.890Z,6.40
2017-11-20T14:45:45.242Z,6.40
2017-11-20T14:51:14.372Z,6.50
2017-11-20T14:53:43.617Z,6.50
2017-11-20T14:56:11.173Z,6.40
2017-11-20T14:58:38.724Z,6.50
2017-11-20T15:01:06.257Z,6.40
2017-11-20T15:03:33.857Z,6.40
2017-11-20T15:06:02.661Z,6.40
2017-11-20T15:08:30.235Z,6.50
2017-11-20T15:10:57.796Z,6.40
2017-11-20T15:13:25.370Z,6.40
2017-11-20T15:15:53.778Z,6.40
2017-11-20T15:18:22.048Z,6.40
2017-11-20T15:20:50.406Z,6.40
2017-11-20T15:23:17.949Z,6.40
2017-11-20T15:25:46.077Z,6.40
2017-11-20T15:28:13.627Z,6.40
2017-11-20T15:30:42.146Z,6.50
2017-11-20T15:33:11.386Z,6.50
2017-11-20T15:35:38.961Z,6.40
2017-11-20T15:38:06.497Z,6.50
2017-11-20T15:40:34.049Z,6.50
2017-11-20T15:43:01.584Z,6.50
2017-11-20T15:45:29.140Z,6.50
2017-11-20T15:47:57.438Z,6.60
2017-11-20T15:50:25.008Z,6.60
2017-11-20T15:52:53.322Z,6.50
2017-11-20T15:55:20.914Z,6.50
2017-11-20T15:57:49.231Z,6.40
2017-11-20T16:00:16.862Z,6.40
2017-11-20T16:02:44.450Z,6.40
2017-11-20T16:05:12.058Z,6.40
2017-11-20T16:07:39.625Z,6.50
2017-11-20T16:10:07.206Z,6.60
2017-11-20T16:12:34.733Z,6.70
2017-11-20T16:15:03.145Z,6.70
2017-11-20T16:17:30.665Z,6.60
2017-11-20T16:19:58.246Z,6.70
2017-11-20T16:22:25.785Z,6.70
2017-11-20T16:24:53.341Z,6.70
2017-11-20T16:27:20.872Z,6.60
2017-11-20T16:29:48.450Z,6.70
2017-11-20T16:32:16.542Z,6.70
2017-11-20T16:34:44.145Z,6.70
2017-11-20T16:37:11.687Z,6.70
2017-11-20T16:39:39.253Z,6.70
2017-11-20T16:42:07.517Z,6.70
2017-11-20T16:44:35.077Z,6.60
2017-11-20T16:47:03.369Z,6.60
2017-11-20T16:49:30.939Z,6.60
2017-11-20T16:51:58.460Z,6.70
2017-11-20T16:54:26.016Z,6.80
2017-11-20T16:57:05.540Z,6.80
2017-11-20T16:59:37.941Z,6.80
2017-11-20T17:02:25.407Z,6.80
2017-11-20T17:04:52.961Z,6.70
2017-11-20T17:07:21.265Z,6.80
2017-11-20T17:09:48.834Z,6.80
2017-11-20T17:12:17.353Z,6.80
2017-11-20T17:14:44.927Z,6.80
2017-11-20T17:17:12.501Z,6.80
2017-11-20T17:19:40.049Z,6.80
2017-11-20T17:22:07.586Z,6.90
2017-11-20T17:24:35.157Z,6.90
2017-11-20T17:27:02.778Z,6.90
2017-11-20T17:29:30.332Z,6.90
2017-11-20T17:31:58.619Z,6.90
2017-11-20T17:34:26.945Z,6.90
2017-11-20T17:36:54.478Z,6.90
2017-11-20T17:39:22.801Z,6.90
2017-11-20T17:41:50.324Z,6.90
2017-11-20T17:44:17.892Z,6.90
2017-11-20T17:46:45.443Z,7.00
2017-11-20T17:49:13.021Z,7.00
2017-11-20T17:51:40.568Z,6.90
2017-11-20T17:54:09.034Z,6.80
2017-11-20T17:56:37.335Z,6.90
2017-11-20T17:59:05.342Z,6.80
2017-11-20T18:01:32.869Z,6.90
2017-11-20T18:04:01.224Z,6.80
2017-11-20T18:06:28.748Z,6.80
2017-11-20T18:08:57.070Z,6.80
2017-11-20T18:11:24.659Z,6.80
2017-11-20T18:13:52.252Z,6.80
2017-11-20T18:16:19.777Z,6.80
2017-11-20T18:18:47.347Z,6.80
2017-11-20T18:21:14.897Z,6.80
2017-11-20T18:23:42.504Z,6.70
2017-11-20T18:37:42.829Z,6.60
2017-11-20T18:40:10.352Z,6.50
2017-11-20T18:42:37.909Z,6.60
2017-11-20T18:45:05.447Z,6.50
2017-11-20T18:47:34.090Z,6.60
2017-11-20T18:50:05.783Z,6.60
2017-11-20T18:52:33.397Z,6.60
2017-11-20T18:55:00.916Z,6.60
2017-11-20T18:57:33.266Z,6.60
2017-11-20T19:06:08.574Z,6.60
2017-11-20T19:08:40.857Z,6.70
2017-11-20T19:11:10.386Z,6.80
2017-11-20T19:13:37.953Z,6.80
2017-11-20T19:16:06.125Z,6.90
2017-11-20T19:18:33.901Z,6.90
2017-11-20T19:21:03.957Z,6.90
2017-11-20T19:23:32.673Z,7.00
2017-11-20T19:26:00.236Z,7.00
2017-11-20T19:28:28.578Z,7.00
2017-11-20T19:30:57.067Z,7.00
2017-11-20T19:33:24.665Z,7.10
2017-11-20T19:35:52.748Z,7.10
2017-11-20T19:38:20.320Z,7.10
2017-11-20T19:40:50.180Z,7.10
2017-11-20T19:43:18.542Z,7.30
2017-11-20T19:45:46.117Z,7.30
2017-11-20T19:48:13.701Z,7.20
2017-11-20T19:50:41.287Z,7.40
2017-11-20T19:53:09.627Z,7.30
2017-11-20T19:55:37.158Z,7.30
2017-11-20T19:58:05.496Z,7.40
2017-11-20T20:00:33.078Z,7.40
2017-11-20T20:03:00.661Z,7.40
2017-11-20T20:05:28.188Z,7.40
2017-11-20T20:07:55.752Z,7.40
2017-11-20T20:10:23.340Z,7.40
2017-11-20T20:12:50.900Z,7.50
2017-11-20T20:15:33.212Z,7.50
2017-11-20T20:18:00.818Z,7.50
2017-11-20T20:20:29.560Z,7.40
2017-11-20T20:22:57.126Z,7.50
2017-11-20T20:25:24.654Z,7.50
2017-11-20T20:27:52.217Z,7.50
2017-11-20T20:30:22.450Z,7.40
2017-11-20T20:32:50.029Z,7.40
2017-11-20T20:35:17.884Z,7.50
2017-11-20T20:37:46.221Z,7.60
2017-11-20T20:40:13.764Z,7.60
2017-11-20T20:42:41.345Z,7.50
2017-11-20T20:45:08.886Z,7.60
2017-11-20T20:47:37.241Z,7.60
2017-11-20T20:50:04.812Z,7.50
2017-11-20T20:52:32.441Z,7.50
2017-11-20T20:55:01.055Z,7.50
2017-11-20T20:57:29.384Z,7.50
2017-11-20T20:59:56.929Z,7.50
2017-11-20T21:02:24.645Z,7.50
2017-11-20T21:04:52.232Z,7.50
2017-11-20T21:07:19.809Z,7.70
2017-11-20T21:09:53.127Z,7.70
2017-11-20T21:12:21.472Z,7.60
2017-11-20T21:14:49.010Z,7.60
2017-11-20T21:17:16.623Z,7.70
2017-11-20T21:19:44.410Z,7.70
2017-11-20T21:22:12.254Z,7.80
2017-11-20T21:24:39.840Z,7.70
2017-11-20T21:27:07.409Z,7.70
2017-11-20T21:29:35.950Z,7.70
2017-11-20T21:32:03.530Z,7.70
2017-11-20T21:34:31.061Z,7.70
2017-11-20T21:36:58.642Z,7.80
2017-11-20T21:39:26.165Z,7.80
2017-11-20T21:41:54.493Z,7.70
2017-11-20T21:44:22.020Z,7.70
2017-11-20T21:46:49.584Z,7.70
2017-11-20T21:49:17.121Z,7.70
2017-11-20T21:51:44.704Z,7.70
2017-11-20T21:54:13.114Z,7.80
2017-11-20T21:56:40.708Z,7.80
2017-11-20T21:59:09.207Z,8.00
2017-11-20T22:01:36.815Z,8.00
2017-11-20T22:04:04.351Z,8.10
2017-11-20T22:06:32.685Z,8.20
2017-11-20T22:09:00.216Z,8.20
2017-11-20T22:11:30.075Z,8.20
2017-11-20T22:13:58.592Z,8.20
2017-11-20T22:16:26.149Z,8.20
2017-11-20T22:18:53.678Z,8.20
2017-11-20T22:21:21.242Z,8.30
2017-11-20T22:23:48.780Z,8.30
2017-11-20T22:26:17.165Z,8.20
2017-11-20T22:28:44.690Z,8.30
2017-11-20T22:31:13.777Z,8.30
2017-11-20T22:33:41.312Z,8.30
2017-11-20T22:36:08.880Z,8.30
2017-11-20T22:38:36.405Z,8.30
2017-11-20T22:41:03.974Z,8.20
2017-11-20T22:43:31.512Z,8.10
2017-11-20T22:46:00.325Z,8.20
2017-11-20T22:48:27.853Z,8.00
2017-11-20T22:50:56.181Z,7.80
2017-11-20T22:53:23.712Z,7.80
2017-11-20T22:55:52.037Z,7.80
2017-11-20T22:58:20.185Z,7.70
2017-11-20T23:00:47.759Z,7.70
2017-11-20T23:03:16.063Z,7.50
2017-11-20T23:05:43.641Z,7.60
2017-11-20T23:08:11.195Z,7.50
2017-11-20T23:10:39.493Z,7.50
2017-11-20T23:13:07.052Z,7.50
2017-11-20T23:15:34.616Z,7.40
2017-11-20T23:18:02.180Z,7.40
2017-11-20T23:20:29.707Z,7.50
2017-11-20T23:22:57.299Z,7.50
2017-11-20T23:25:24.834Z,7.50
2017-11-20T23:27:53.152Z,7.40
2017-11-20T23:30:20.685Z,7.40
2017-11-20T23:32:49.037Z,7.50
2017-11-20T23:35:16.589Z,7.50
2017-11-20T23:37:44.493Z,7.50
2017-11-20T23:40:12.834Z,7.50
2017-11-20T23:42:40.405Z,7.60
2017-11-20T23:45:09.352Z,7.60
2017-11-20T23:47:36.920Z,7.60
2017-11-20T23:50:05.358Z,7.60
2017-11-20T23:52:32.919Z,7.70
2017-11-20T23:55:00.445Z,7.60
2017-11-20T23:57:28.023Z,7.60
2017-11-20T23:59:55.544Z,7.60
